Time;durP1;ratioP1;P1;durP2;ratioP2;P2;SDS_P1;SDS_P2;PMS_P1;PMS_P2;Temp;Humidity;BMP_temperature;BMP_pressure;BME280_temperature;BME280_humidity;BME280_pressure;Samples;Min_cycle;Max_cycle;Signal;HPM_P1;HPM_P2
2023/12/03 00:01:49;;;;;;;32.03;21.33;;;23.50;53.50;;;;;;5058911;28;20123;-67
2023/12/03 00:04:15;;;;;;;37.47;20.60;;;23.30;53.40;;;;;;5064218;28;20025;-67
2023/12/03 00:06:41;;;;;;;35.33;21.27;;;23.40;53.40;;;;;;5056370;28;20451;-67
2023/12/03 00:09:07;;;;;;;34.60;21.13;;;23.50;53.50;;;;;;5037049;28;20037;-67
2023/12/03 00:11:33;;;;;;;32.97;21.10;;;23.40;53.40;;;;;;5018191;28;20033;-67
2023/12/03 00:13:59;;;;;;;34.78;21.70;;;23.30;53.30;;;;;;5053668;28;20709;-67
2023/12/03 00:16:25;;;;;;;33.63;20.55;;;23.50;53.50;;;;;;5053674;28;20060;-67
2023/12/03 00:18:51;;;;;;;34.60;19.58;;;23.50;53.50;;;;;;5053718;28;20028;-68
2023/12/03 00:21:17;;;;;;;36.97;21.00;;;23.50;53.50;;;;;;5018236;28;20099;-66
2023/12/03 00:23:43;;;;;;;35.72;21.77;;;23.50;53.50;;;;;;5035923;28;20037;-68
2023/12/03 00:26:09;;;;;;;35.35;20.52;;;23.50;53.40;;;;;;5054418;28;20037;-68
2023/12/03 00:28:36;;;;;;;34.95;20.23;;;23.30;53.30;;;;;;5066558;28;20043;-68
2023/12/03 00:31:02;;;;;;;37.85;21.30;;;23.30;53.30;;;;;;5072027;28;20036;-68
2023/12/03 00:33:28;;;;;;;38.72;22.23;;;23.30;53.30;;;;;;5066167;28;20036;-68
2023/12/03 00:35:54;;;;;;;39.50;21.58;;;23.30;53.30;;;;;;5071678;28;20053;-68
2023/12/03 00:38:21;;;;;;;36.75;20.23;;;23.30;53.30;;;;;;5073307;28;20064;-67
2023/12/03 00:40:47;;;;;;;31.30;19.05;;;23.30;53.30;;;;;;5072615;28;20052;-69
2023/12/03 00:43:13;;;;;;;35.58;19.60;;;23.30;53.20;;;;;;5062257;28;20065;-69
2023/12/03 00:45:39;;;;;;;33.70;20.35;;;23.30;53.20;;;;;;5067640;28;20056;-69
2023/12/03 00:48:05;;;;;;;30.77;18.88;;;23.30;53.10;;;;;;5018734;28;20527;-68
2023/12/03 00:50:31;;;;;;;33.17;19.73;;;23.20;53.10;;;;;;5053973;28;20081;-69
2023/12/03 00:52:58;;;;;;;31.23;18.80;;;23.10;53.10;;;;;;5069406;28;20059;-70
2023/12/03 00:55:24;;;;;;;35.40;19.92;;;23.20;53.10;;;;;;5054608;28;20058;-69
2023/12/03 00:57:50;;;;;;;33.15;18.25;;;23.20;53.10;;;;;;5057967;28;20104;-68
2023/12/03 01:00:17;;;;;;;32.20;18.55;;;23.10;53.00;;;;;;5068583;28;20070;-68
2023/12/03 01:02:43;;;;;;;34.70;19.55;;;23.20;53.00;;;;;;5065478;28;20100;-70
2023/12/03 01:05:09;;;;;;;31.40;19.52;;;23.30;53.00;;;;;;5056829;28;20037;-69
2023/12/03 01:07:35;;;;;;;31.02;18.15;;;23.20;52.90;;;;;;5035116;28;20432;-68
2023/12/03 01:10:01;;;;;;;34.40;19.17;;;23.30;52.90;;;;;;5058991;28;20035;-68
2023/12/03 01:12:28;;;;;;;30.73;18.17;;;23.30;52.90;;;;;;5066412;28;20044;-68
2023/12/03 01:14:54;;;;;;;29.20;18.67;;;23.30;52.90;;;;;;5034573;28;20167;-68
2023/12/03 01:17:20;;;;;;;28.75;18.90;;;23.30;52.80;;;;;;5053768;28;20045;-68
2023/12/03 01:19:47;;;;;;;32.53;19.77;;;23.30;52.80;;;;;;5035464;28;20032;-69
2023/12/03 01:22:13;;;;;;;26.88;18.70;;;23.30;52.70;;;;;;5052067;28;20094;-69
2023/12/03 01:24:40;;;;;;;33.40;19.77;;;23.20;52.60;;;;;;5062214;28;20111;-68
2023/12/03 01:27:06;;;;;;;38.00;20.65;;;23.20;52.50;;;;;;5069995;28;20532;-69
2023/12/03 01:29:33;;;;;;;31.33;18.98;;;23.20;52.50;;;;;;5072143;28;20404;-68
2023/12/03 01:31:59;;;;;;;32.17;20.27;;;23.20;52.50;;;;;;5070474;28;20036;-69
2023/12/03 01:34:25;;;;;;;28.83;18.08;;;23.10;52.50;;;;;;5071908;28;20036;-69
2023/12/03 01:36:51;;;;;;;35.65;19.63;;;23.10;52.50;;;;;;5070444;28;20032;-67
2023/12/03 01:39:17;;;;;;;33.83;19.83;;;23.10;52.40;;;;;;5070107;28;20033;-69
2023/12/03 01:41:43;;;;;;;31.70;20.50;;;23.10;52.40;;;;;;5049273;28;20095;-66
2023/12/03 01:44:09;;;;;;;32.00;20.13;;;23.00;52.30;;;;;;5057841;28;20033;-68
2023/12/03 01:46:35;;;;;;;35.47;21.92;;;23.00;52.30;;;;;;5052892;28;20043;-68
2023/12/03 01:49:02;;;;;;;31.85;21.42;;;23.20;52.30;;;;;;5058927;28;20067;-67
2023/12/03 01:51:28;;;;;;;34.25;21.80;;;23.00;52.30;;;;;;5071851;28;20043;-69
2023/12/03 01:53:55;;;;;;;33.85;21.13;;;23.20;52.30;;;;;;5070162;28;20036;-67
2023/12/03 01:56:21;;;;;;;31.70;21.17;;;23.10;52.30;;;;;;5063122;28;20589;-68
2023/12/03 01:58:47;;;;;;;33.85;20.23;;;23.10;52.30;;;;;;5070441;28;20029;-68
2023/12/03 02:01:13;;;;;;;33.03;21.20;;;23.10;52.20;;;;;;5052464;28;20120;-68
2023/12/03 02:03:39;;;;;;;33.83;21.45;;;23.00;52.10;;;;;;5056494;28;20048;-69
2023/12/03 02:06:09;;;;;;;33.10;20.58;;;23.00;52.00;;;;;;5069822;28;20203;-70
2023/12/03 02:08:36;;;;;;;32.08;19.38;;;23.10;52.00;;;;;;5042284;28;20037;-69
2023/12/03 02:11:05;;;;;;;35.50;20.40;;;23.20;52.00;;;;;;5052054;28;20048;-68
2023/12/03 02:13:33;;;;;;;29.75;19.83;;;23.10;51.90;;;;;;5052466;28;20032;-68
2023/12/03 02:15:59;;;;;;;34.70;20.48;;;23.10;51.90;;;;;;5069136;28;20052;-68
2023/12/03 02:18:26;;;;;;;32.30;20.55;;;23.00;51.70;;;;;;5060704;28;20033;-69
2023/12/03 02:20:56;;;;;;;33.08;20.40;;;23.10;51.70;;;;;;5058724;28;20037;-67
2023/12/03 02:23:22;;;;;;;32.55;20.65;;;23.00;51.70;;;;;;5059983;28;20041;-69
2023/12/03 02:25:50;;;;;;;30.92;19.85;;;23.00;51.70;;;;;;5000707;28;20560;-69
2023/12/03 02:28:18;;;;;;;31.05;19.02;;;23.10;51.70;;;;;;5050987;28;20033;-69
2023/12/03 02:30:44;;;;;;;33.65;20.35;;;23.00;51.60;;;;;;5033231;28;20037;-68
2023/12/03 02:33:10;;;;;;;30.63;19.23;;;23.00;51.60;;;;;;5052035;28;20055;-68
2023/12/03 02:35:36;;;;;;;28.65;18.83;;;22.90;51.60;;;;;;5056580;28;20035;-67
2023/12/03 02:38:02;;;;;;;27.45;17.33;;;23.00;51.50;;;;;;5016940;28;20037;-68
2023/12/03 02:40:32;;;;;;;26.83;17.48;;;22.90;51.40;;;;;;5033670;28;20033;-69
2023/12/03 02:42:59;;;;;;;24.23;17.15;;;22.90;51.50;;;;;;5063907;28;20017;-68
2023/12/03 02:45:25;;;;;;;32.40;18.17;;;22.90;51.50;;;;;;5051016;28;20033;-69
2023/12/03 02:47:51;;;;;;;25.98;17.42;;;22.90;51.40;;;;;;5054710;28;20153;-68
2023/12/03 02:50:17;;;;;;;27.75;18.02;;;22.90;51.40;;;;;;5054840;28;20028;-68
2023/12/03 02:52:43;;;;;;;29.13;18.13;;;22.90;51.30;;;;;;5052329;28;20021;-68
2023/12/03 02:55:09;;;;;;;26.50;18.13;;;23.00;51.30;;;;;;5070843;28;20395;-68
2023/12/03 02:57:36;;;;;;;31.65;19.17;;;23.00;51.30;;;;;;5058519;28;20044;-69
2023/12/03 03:00:06;;;;;;;25.55;17.83;;;22.90;51.20;;;;;;5057645;28;20038;-68
2023/12/03 03:02:33;;;;;;;36.03;20.45;;;23.00;51.20;;;;;;5050801;28;20025;-68
2023/12/03 03:04:59;;;;;;;33.17;17.98;;;23.00;51.20;;;;;;5063879;28;20512;-69
2023/12/03 03:07:25;;;;;;;30.88;19.08;;;22.90;51.20;;;;;;5053689;28;20041;-68
2023/12/03 03:09:51;;;;;;;31.70;20.40;;;22.90;51.20;;;;;;5051720;28;20029;-68
2023/12/03 03:12:17;;;;;;;31.27;18.75;;;22.90;51.20;;;;;;5050885;28;20369;-69
2023/12/03 03:14:43;;;;;;;31.85;19.23;;;23.00;51.20;;;;;;5050850;28;20508;-69
2023/12/03 03:17:09;;;;;;;32.47;17.88;;;23.10;51.20;;;;;;5052691;28;20045;-69
2023/12/03 03:19:35;;;;;;;28.67;18.48;;;22.90;51.00;;;;;;5057290;28;20116;-68
2023/12/03 03:22:01;;;;;;;29.23;18.50;;;22.90;50.90;;;;;;5071932;28;20111;-68
2023/12/03 03:24:27;;;;;;;34.00;19.48;;;23.00;50.80;;;;;;5072135;28;20113;-68
2023/12/03 03:26:54;;;;;;;29.08;19.02;;;23.00;50.80;;;;;;5067598;28;20095;-69
2023/12/03 03:29:20;;;;;;;28.85;18.13;;;22.90;50.80;;;;;;5002632;28;20695;-68
2023/12/03 03:31:46;;;;;;;33.55;19.65;;;22.90;50.80;;;;;;5004979;28;20037;-68
2023/12/03 03:34:12;;;;;;;26.23;17.80;;;22.90;50.80;;;;;;5054609;28;20064;-68
2023/12/03 03:36:38;;;;;;;25.17;17.40;;;22.90;50.80;;;;;;5057851;28;20075;-70
2023/12/03 03:39:04;;;;;;;26.30;17.08;;;22.90;50.70;;;;;;5058780;28;20341;-68
2023/12/03 03:41:30;;;;;;;27.77;16.80;;;22.80;50.60;;;;;;5074265;28;20037;-68
2023/12/03 03:43:56;;;;;;;26.50;17.33;;;22.80;50.60;;;;;;5012024;28;20044;-68
2023/12/03 03:46:22;;;;;;;27.50;16.88;;;22.70;50.60;;;;;;5070982;28;20049;-68
2023/12/03 03:48:48;;;;;;;26.33;17.17;;;22.80;50.60;;;;;;5074133;28;20048;-68
2023/12/03 03:51:14;;;;;;;26.35;17.05;;;22.80;50.50;;;;;;5074066;28;20044;-67
2023/12/03 03:53:40;;;;;;;27.05;17.15;;;22.70;50.50;;;;;;5070334;28;20043;-67
2023/12/03 03:56:08;;;;;;;25.55;16.85;;;22.80;50.50;;;;;;5065734;28;20507;-67
2023/12/03 03:58:35;;;;;;;25.38;16.85;;;22.80;50.50;;;;;;5055798;28;20037;-68
2023/12/03 04:01:04;;;;;;;26.08;17.55;;;22.70;50.50;;;;;;5061292;28;20047;-68
2023/12/03 04:03:31;;;;;;;20.58;14.85;;;22.80;50.40;;;;;;5073672;28;20033;-67
2023/12/03 04:06:00;;;;;;;24.75;15.23;;;22.70;50.40;;;;;;5054653;28;20083;-68
2023/12/03 04:08:26;;;;;;;26.08;15.45;;;22.70;50.30;;;;;;5055057;28;20033;-67
2023/12/03 04:10:52;;;;;;;21.02;13.40;;;22.80;50.20;;;;;;5058525;28;20069;-67
2023/12/03 04:13:18;;;;;;;21.33;15.38;;;22.80;50.20;;;;;;5072464;28;20028;-68
2023/12/03 04:15:44;;;;;;;17.65;12.05;;;22.80;50.10;;;;;;5072796;28;20105;-68
2023/12/03 04:18:10;;;;;;;16.85;11.30;;;22.80;50.00;;;;;;5071005;28;20111;-68
2023/12/03 04:20:36;;;;;;;13.77;9.80;;;22.80;50.00;;;;;;5072133;28;20544;-67
2023/12/03 04:23:02;;;;;;;14.48;9.05;;;22.90;50.00;;;;;;5072221;28;20107;-68
2023/12/03 04:25:28;;;;;;;10.68;8.32;;;22.90;50.00;;;;;;5061323;28;20079;-66
2023/12/03 04:27:55;;;;;;;11.95;7.22;;;22.80;49.80;;;;;;5056804;28;20037;-66
2023/12/03 04:30:21;;;;;;;10.40;6.70;;;22.90;49.90;;;;;;5055801;28;20619;-68
2023/12/03 04:32:47;;;;;;;12.88;7.38;;;22.90;49.80;;;;;;5068880;28;20123;-67
2023/12/03 04:35:13;;;;;;;11.63;7.70;;;22.80;49.70;;;;;;5011721;28;20098;-66
2023/12/03 04:37:40;;;;;;;11.45;7.20;;;22.80;49.70;;;;;;5035292;28;20044;-68
2023/12/03 04:40:06;;;;;;;14.40;9.70;;;22.80;49.70;;;;;;5038881;28;20032;-68
2023/12/03 04:42:32;;;;;;;11.13;8.90;;;22.80;49.70;;;;;;5070572;28;20170;-66
2023/12/03 04:44:58;;;;;;;12.57;7.65;;;22.80;49.70;;;;;;5071888;28;20036;-65
2023/12/03 04:47:24;;;;;;;3.92;2.95;;;22.80;49.70;;;;;;5070300;28;20037;-68
2023/12/03 04:49:50;;;;;;;4.65;3.15;;;22.80;49.70;;;;;;5036214;28;20052;-68
2023/12/03 04:52:17;;;;;;;3.97;2.92;;;22.70;49.60;;;;;;5064421;28;20026;-67
2023/12/03 04:54:43;;;;;;;3.20;2.90;;;22.80;49.60;;;;;;5059895;28;20035;-68
2023/12/03 04:57:09;;;;;;;10.00;6.18;;;22.90;49.60;;;;;;5063513;28;20032;-66
2023/12/03 04:59:35;;;;;;;10.23;7.97;;;22.80;49.50;;;;;;5059609;28;20025;-68
2023/12/03 05:02:01;;;;;;;10.13;6.70;;;22.70;49.60;;;;;;5052288;28;20032;-67
2023/12/03 05:04:27;;;;;;;5.45;4.10;;;22.80;49.60;;;;;;5051788;28;20396;-67
2023/12/03 05:06:53;;;;;;;7.05;4.97;;;22.80;49.60;;;;;;5030596;28;20489;-67
2023/12/03 05:09:19;;;;;;;7.60;5.75;;;22.80;49.50;;;;;;5067720;28;20035;-67
2023/12/03 05:11:45;;;;;;;4.05;2.03;;;22.80;49.50;;;;;;5070926;28;20051;-68
2023/12/03 05:14:11;;;;;;;2.57;2.37;;;22.70;49.50;;;;;;5029041;28;1191032;-67
2023/12/03 05:16:37;;;;;;;5.47;3.30;;;22.80;49.40;;;;;;5071782;28;20440;-68
2023/12/03 05:19:04;;;;;;;7.32;5.40;;;22.80;49.40;;;;;;5071336;28;20036;-68
2023/12/03 05:21:30;;;;;;;8.85;5.90;;;22.90;49.40;;;;;;5072192;28;20043;-68
2023/12/03 05:23:56;;;;;;;10.70;7.45;;;22.90;49.40;;;;;;5069833;28;20055;-68
2023/12/03 05:26:22;;;;;;;9.63;6.68;;;22.90;49.40;;;;;;5052613;28;20036;-68
2023/12/03 05:28:49;;;;;;;9.52;7.70;;;23.00;49.40;;;;;;5053576;28;20083;-68
2023/12/03 05:31:15;;;;;;;8.20;6.10;;;22.80;49.30;;;;;;5052740;28;20079;-68
2023/12/03 05:33:41;;;;;;;7.68;5.25;;;23.00;49.50;;;;;;5072227;28;20041;-68
2023/12/03 05:36:09;;;;;;;5.80;5.15;;;22.90;49.50;;;;;;5071868;28;20025;-68
2023/12/03 05:38:37;;;;;;;7.07;4.57;;;22.90;49.40;;;;;;5068967;28;20040;-68
2023/12/03 05:41:03;;;;;;;5.50;4.68;;;22.90;49.40;;;;;;5069413;28;20480;-68
2023/12/03 05:43:29;;;;;;;7.07;4.22;;;23.00;49.40;;;;;;5064157;28;20032;-66
2023/12/03 05:45:55;;;;;;;5.30;3.97;;;23.00;49.40;;;;;;5016137;28;20091;-67
2023/12/03 05:48:21;;;;;;;4.28;3.50;;;22.90;49.50;;;;;;5063564;28;20042;-68
2023/12/03 05:50:47;;;;;;;5.03;3.55;;;22.90;49.50;;;;;;5032244;28;20037;-68
2023/12/03 05:53:13;;;;;;;4.60;3.40;;;22.90;49.40;;;;;;5052737;28;20041;-64
2023/12/03 05:55:39;;;;;;;4.53;3.30;;;22.90;49.40;;;;;;5060504;28;20050;-67
2023/12/03 05:58:06;;;;;;;4.72;3.22;;;22.90;49.40;;;;;;5070119;28;20033;-66
2023/12/03 06:00:32;;;;;;;6.43;3.67;;;22.80;49.20;;;;;;5071488;28;20433;-68
2023/12/03 06:02:59;;;;;;;5.50;3.33;;;22.70;49.30;;;;;;5070267;28;20040;-68
2023/12/03 06:05:25;;;;;;;4.13;3.10;;;22.80;49.20;;;;;;5062030;28;20056;-68
2023/12/03 06:07:51;;;;;;;5.25;2.83;;;22.80;49.20;;;;;;5061075;28;20097;-68
2023/12/03 06:10:17;;;;;;;3.40;2.90;;;22.90;49.20;;;;;;5052398;28;20776;-68
2023/12/03 06:12:43;;;;;;;3.33;2.47;;;22.70;49.10;;;;;;5040052;28;20056;-68
2023/12/03 06:15:09;;;;;;;5.40;2.67;;;22.90;49.20;;;;;;5071067;28;20539;-68
2023/12/03 06:17:35;;;;;;;7.00;3.17;;;22.80;49.10;;;;;;5069662;28;20032;-68
2023/12/03 06:20:02;;;;;;;4.75;3.08;;;22.90;49.20;;;;;;5071452;28;20032;-68
2023/12/03 06:22:28;;;;;;;5.93;2.50;;;22.80;49.00;;;;;;5069487;28;20021;-68
2023/12/03 06:24:53;;;;;;;3.15;2.53;;;22.90;49.10;;;;;;5069733;28;20029;-68
2023/12/03 06:27:19;;;;;;;5.75;2.97;;;22.80;48.90;;;;;;5069771;28;20488;-68
2023/12/03 06:29:46;;;;;;;2.80;2.42;;;22.80;48.90;;;;;;5051978;28;20044;-67
2023/12/03 06:32:12;;;;;;;2.50;2.20;;;22.80;48.90;;;;;;5026395;28;20041;-68
2023/12/03 06:34:38;;;;;;;6.03;5.00;;;22.90;48.80;;;;;;5032093;28;20401;-67
2023/12/03 06:37:04;;;;;;;7.10;5.55;;;22.90;45.10;;;;;;4998893;28;20044;-67
2023/12/03 06:39:30;;;;;;;6.93;4.97;;;23.00;49.00;;;;;;5062745;28;20047;-68
2023/12/03 06:41:56;;;;;;;8.15;5.80;;;23.10;46.80;;;;;;5069885;28;20365;-68
2023/12/03 06:44:22;;;;;;;5.97;5.18;;;23.20;45.80;;;;;;5063556;28;20078;-67
2023/12/03 06:46:48;;;;;;;8.63;5.75;;;23.10;46.00;;;;;;5060888;28;20104;-67
2023/12/03 06:49:14;;;;;;;7.32;5.43;;;23.20;51.10;;;;;;5066310;28;20044;-68
2023/12/03 06:51:40;;;;;;;7.07;5.45;;;23.30;51.20;;;;;;5068933;28;20054;-67
2023/12/03 06:54:06;;;;;;;8.55;6.60;;;23.20;49.20;;;;;;5040405;28;20408;-66
2023/12/03 06:56:33;;;;;;;22.63;19.10;;;23.50;51.10;;;;;;5066232;28;20043;-64
2023/12/03 06:59:00;;;;;;;20.65;17.48;;;23.60;49.10;;;;;;5058307;28;20501;-67
2023/12/03 07:01:25;;;;;;;18.60;15.05;;;23.60;49.60;;;;;;5058977;28;20155;-66
2023/12/03 07:03:52;;;;;;;17.60;13.15;;;23.70;50.00;;;;;;5058181;28;20073;-63
2023/12/03 07:06:18;;;;;;;8.43;5.60;;;23.60;44.50;;;;;;5051848;28;20110;-66
2023/12/03 07:08:44;;;;;;;3.53;2.90;;;23.60;49.20;;;;;;5059805;28;20504;-66
2023/12/03 07:11:13;;;;;;;5.00;3.33;;;23.60;51.50;;;;;;5060231;28;20055;-66
2023/12/03 07:13:39;;;;;;;4.80;2.95;;;23.70;51.20;;;;;;5059728;28;20115;-68
2023/12/03 07:16:07;;;;;;;5.20;3.55;;;23.70;51.20;;;;;;5054965;28;20049;-67
2023/12/03 07:18:33;;;;;;;4.13;2.90;;;23.70;51.60;;;;;;5055679;28;20104;-68
2023/12/03 07:20:59;;;;;;;4.30;3.30;;;23.70;51.60;;;;;;5054984;28;20028;-67
2023/12/03 07:23:25;;;;;;;3.90;3.42;;;23.70;52.10;;;;;;5057113;28;20040;-66
2023/12/03 07:25:51;;;;;;;4.40;3.38;;;23.60;52.40;;;;;;5050041;28;20140;-67
2023/12/03 07:28:17;;;;;;;4.22;2.85;;;23.60;52.80;;;;;;5016044;28;20072;-67
2023/12/03 07:30:43;;;;;;;4.85;4.00;;;23.60;53.20;;;;;;5017488;28;20068;-69
2023/12/03 07:33:10;;;;;;;5.03;3.65;;;23.50;53.50;;;;;;5069842;28;20063;-68
2023/12/03 07:35:36;;;;;;;4.20;3.55;;;23.60;53.40;;;;;;5070284;28;20040;-68
2023/12/03 07:38:02;;;;;;;4.10;3.42;;;23.40;54.90;;;;;;5040923;28;20056;-68
2023/12/03 07:40:28;;;;;;;4.43;3.15;;;23.50;58.40;;;;;;5049811;28;20037;-68
2023/12/03 07:42:54;;;;;;;5.45;3.95;;;23.50;58.70;;;;;;5059599;28;20075;-67
2023/12/03 07:45:20;;;;;;;3.92;3.40;;;23.40;57.80;;;;;;5065121;28;20403;-67
2023/12/03 07:47:46;;;;;;;7.97;4.65;;;23.50;57.80;;;;;;5058203;28;20534;-67
2023/12/03 07:50:12;;;;;;;5.88;4.20;;;23.40;58.10;;;;;;5032882;28;20029;-67
2023/12/03 07:52:38;;;;;;;8.05;4.93;;;23.40;58.20;;;;;;5058161;28;20029;-67
2023/12/03 07:55:06;;;;;;;9.05;4.53;;;23.50;57.90;;;;;;5050333;28;20055;-67
2023/12/03 07:57:32;;;;;;;6.47;4.80;;;23.50;57.80;;;;;;5060644;28;20055;-69
2023/12/03 07:59:58;;;;;;;8.43;4.75;;;23.40;57.90;;;;;;5064731;28;20060;-67
2023/12/03 08:02:24;;;;;;;7.70;4.72;;;23.50;57.90;;;;;;5039088;28;20036;-65
2023/12/03 08:04:50;;;;;;;7.40;4.43;;;23.40;57.50;;;;;;5014957;28;20090;-68
2023/12/03 08:07:16;;;;;;;6.20;4.25;;;23.40;56.70;;;;;;5066404;28;20032;-66
2023/12/03 08:09:42;;;;;;;7.07;5.15;;;23.40;56.20;;;;;;5019478;28;20753;-65
2023/12/03 08:12:08;;;;;;;7.13;5.13;;;23.40;56.00;;;;;;5062496;28;20028;-65
2023/12/03 08:14:34;;;;;;;7.45;5.50;;;23.40;55.90;;;;;;5053350;28;20603;-71
2023/12/03 08:17:00;;;;;;;7.40;4.82;;;23.40;55.80;;;;;;5058492;28;20056;-63
2023/12/03 08:19:26;;;;;;;9.57;6.18;;;23.50;55.70;;;;;;5061490;28;20040;-66
2023/12/03 08:21:54;;;;;;;10.50;6.30;;;23.60;55.50;;;;;;5060927;28;20056;-66
2023/12/03 08:24:20;;;;;;;6.93;5.28;;;23.50;55.60;;;;;;5056335;28;20043;-67
2023/12/03 08:26:46;;;;;;;9.85;6.05;;;23.40;55.60;;;;;;5059030;28;20028;-66
2023/12/03 08:29:15;;;;;;;8.40;5.82;;;23.50;55.30;;;;;;5046028;28;20707;-69
2023/12/03 08:31:41;;;;;;;9.95;6.45;;;23.40;55.10;;;;;;5073288;28;20031;-68
2023/12/03 08:34:07;;;;;;;9.00;6.18;;;23.40;54.90;;;;;;5073606;28;20041;-69
2023/12/03 08:36:33;;;;;;;10.32;6.30;;;23.40;54.80;;;;;;5066951;28;20036;-67
2023/12/03 08:39:02;;;;;;;11.45;6.90;;;23.50;54.80;;;;;;5037357;28;20036;-66
2023/12/03 08:41:28;;;;;;;9.73;6.43;;;23.40;54.70;;;;;;5020407;28;20568;-68
2023/12/03 08:43:54;;;;;;;10.18;5.85;;;23.50;54.80;;;;;;5036620;28;20095;-69
2023/12/03 08:46:21;;;;;;;7.00;4.45;;;23.40;54.70;;;;;;5059831;28;20460;-66
2023/12/03 08:48:48;;;;;;;8.63;5.68;;;23.50;54.70;;;;;;5058979;28;20468;-69
2023/12/03 08:51:14;;;;;;;7.65;5.68;;;23.50;54.70;;;;;;5052989;28;20041;-69
2023/12/03 08:53:41;;;;;;;10.80;6.22;;;23.50;54.60;;;;;;5033463;28;20479;-66
2023/12/03 08:56:14;;;;;;;8.77;6.15;;;23.60;54.50;;;;;;5054897;28;20037;-66
2023/12/03 08:58:40;;;;;;;7.47;4.37;;;23.50;54.40;;;;;;5056946;28;20024;-66
2023/12/03 09:01:07;;;;;;;8.18;6.05;;;23.60;54.40;;;;;;5058069;28;20037;-67
2023/12/03 09:03:40;;;;;;;9.02;5.75;;;23.70;54.30;;;;;;5052351;28;20039;-67
2023/12/03 09:06:07;;;;;;;12.20;7.22;;;23.60;54.10;;;;;;5045768;28;20056;-68
2023/12/03 09:08:33;;;;;;;9.25;6.32;;;23.50;54.00;;;;;;5044899;28;20036;-68
2023/12/03 09:10:59;;;;;;;8.93;6.40;;;23.60;53.90;;;;;;5072704;28;20381;-68
2023/12/03 09:13:25;;;;;;;10.20;6.32;;;23.40;53.70;;;;;;5072742;28;20036;-68
2023/12/03 09:15:51;;;;;;;8.73;6.50;;;23.50;53.90;;;;;;5071958;28;20057;-68
2023/12/03 09:18:17;;;;;;;8.95;6.30;;;23.40;53.70;;;;;;5072250;28;20047;-68
2023/12/03 09:20:43;;;;;;;10.50;5.75;;;23.20;53.70;;;;;;5068596;28;20402;-68
2023/12/03 09:23:09;;;;;;;9.75;6.53;;;23.40;53.40;;;;;;5064579;28;20033;-70
2023/12/03 09:25:35;;;;;;;10.48;6.13;;;23.20;53.30;;;;;;5052537;28;20417;-70
2023/12/03 09:28:01;;;;;;;9.45;6.05;;;23.30;53.20;;;;;;5065027;28;20116;-70
2023/12/03 09:30:27;;;;;;;11.35;6.40;;;23.40;53.20;;;;;;5017165;28;20051;-68
2023/12/03 09:32:53;;;;;;;9.35;5.82;;;23.30;53.20;;;;;;5052487;28;20025;-69
2023/12/03 09:35:20;;;;;;;10.50;6.03;;;23.40;53.30;;;;;;5052287;28;20048;-68
2023/12/03 09:37:46;;;;;;;12.48;6.78;;;23.20;53.30;;;;;;5053452;28;20036;-67
2023/12/03 09:40:12;;;;;;;8.48;6.10;;;23.20;53.30;;;;;;5049999;28;20117;-67
2023/12/03 09:42:41;;;;;;;10.02;6.07;;;23.30;53.40;;;;;;5068959;28;20045;-68
2023/12/03 09:45:09;;;;;;;10.20;5.97;;;23.30;53.40;;;;;;5068783;28;20695;-68
2023/12/03 09:47:37;;;;;;;9.55;5.60;;;23.30;54.50;;;;;;5036451;28;20040;-68
2023/12/03 09:50:04;;;;;;;11.90;6.07;;;23.20;54.30;;;;;;5071936;28;20033;-67
2023/12/03 09:52:36;;;;;;;8.38;5.85;;;23.20;54.20;;;;;;5048459;28;20478;-68
2023/12/03 09:55:03;;;;;;;11.15;5.90;;;23.20;54.10;;;;;;5052023;28;20071;-68
2023/12/03 09:57:31;;;;;;;10.82;6.68;;;23.30;54.00;;;;;;5051648;28;20564;-67
2023/12/03 09:59:58;;;;;;;9.88;6.15;;;23.30;53.90;;;;;;5051592;28;20361;-68
2023/12/03 10:02:28;;;;;;;9.82;6.22;;;23.40;53.80;;;;;;5052914;28;20041;-68
2023/12/03 10:04:58;;;;;;;9.57;6.30;;;23.30;53.60;;;;;;5071225;28;20079;-68
2023/12/03 10:07:28;;;;;;;10.82;6.55;;;23.30;53.40;;;;;;5035733;28;20098;-69
2023/12/03 10:09:58;;;;;;;11.15;5.57;;;23.30;53.40;;;;;;4999991;28;20397;-68
2023/12/03 10:12:32;;;;;;;8.15;5.40;;;23.40;53.40;;;;;;5051449;28;20041;-67
2023/12/03 10:14:58;;;;;;;7.93;5.00;;;23.30;53.40;;;;;;5051283;28;20147;-70
2023/12/03 10:17:25;;;;;;;6.43;4.85;;;23.40;53.30;;;;;;5051673;28;20033;-69
2023/12/03 10:19:54;;;;;;;7.47;4.57;;;23.30;53.10;;;;;;5051534;28;20028;-69
2023/12/03 10:22:32;;;;;;;7.72;4.72;;;23.30;52.50;;;;;;5052696;28;20370;-69
2023/12/03 10:24:58;;;;;;;9.10;5.15;;;23.30;52.20;;;;;;5052451;28;20033;-69
2023/12/03 10:27:29;;;;;;;7.90;4.57;;;23.20;52.10;;;;;;5033422;28;20036;-69
2023/12/03 10:29:55;;;;;;;12.90;5.55;;;23.40;52.20;;;;;;5051075;28;20021;-69
2023/12/03 10:32:24;;;;;;;8.90;5.85;;;23.30;52.20;;;;;;5051253;28;20040;-69
2023/12/03 10:34:53;;;;;;;6.75;4.70;;;23.20;52.20;;;;;;5051145;28;20036;-68
2023/12/03 10:37:19;;;;;;;8.32;5.25;;;23.30;52.30;;;;;;5051276;28;20033;-69
2023/12/03 10:39:46;;;;;;;9.20;5.20;;;23.20;52.30;;;;;;5052163;28;20037;-69
2023/12/03 10:42:13;;;;;;;8.10;5.38;;;23.30;52.40;;;;;;5033091;28;20397;-70
2023/12/03 10:44:39;;;;;;;6.70;4.85;;;23.10;52.40;;;;;;5050960;28;20044;-70
2023/12/03 10:47:05;;;;;;;12.98;4.55;;;23.20;52.60;;;;;;5051050;28;20033;-70
2023/12/03 10:49:34;;;;;;;8.10;5.20;;;23.10;52.60;;;;;;5050785;28;20029;-69
2023/12/03 10:52:01;;;;;;;7.50;4.88;;;23.10;52.60;;;;;;5066338;28;20439;-69
2023/12/03 10:54:28;;;;;;;6.38;4.05;;;23.20;52.70;;;;;;5066353;28;20063;-68
2023/12/03 10:56:54;;;;;;;5.95;3.90;;;23.20;52.70;;;;;;5055195;28;20029;-70
2023/12/03 10:59:29;;;;;;;7.88;4.65;;;23.00;52.60;;;;;;5050906;28;20033;-69
2023/12/03 11:01:57;;;;;;;7.95;4.35;;;23.00;52.50;;;;;;5000162;28;20507;-70
2023/12/03 11:04:35;;;;;;;7.00;4.43;;;23.10;52.70;;;;;;5050971;28;20033;-70
2023/12/03 11:07:06;;;;;;;8.73;4.93;;;23.00;52.60;;;;;;5050535;28;20040;-69
2023/12/03 11:09:40;;;;;;;7.63;4.80;;;23.10;52.60;;;;;;5051971;28;20032;-68
2023/12/03 11:12:08;;;;;;;9.05;4.10;;;23.00;52.60;;;;;;5050476;28;20060;-69
2023/12/03 11:14:36;;;;;;;7.32;3.95;;;22.90;52.60;;;;;;5050645;28;20436;-68
2023/12/03 11:17:15;;;;;;;10.68;4.88;;;23.00;52.60;;;;;;5051626;28;20464;-69
2023/12/03 11:19:48;;;;;;;6.90;3.90;;;22.90;52.60;;;;;;5050575;28;20323;-69
2023/12/03 11:22:27;;;;;;;7.95;3.88;;;22.70;52.50;;;;;;5050493;28;20469;-69
2023/12/03 11:25:00;;;;;;;8.73;4.90;;;23.00;52.60;;;;;;5051430;28;20114;-69
2023/12/03 11:27:27;;;;;;;7.00;4.03;;;22.80;52.50;;;;;;5050559;28;20123;-69
2023/12/03 11:29:55;;;;;;;9.20;5.28;;;22.80;52.70;;;;;;5050531;28;20069;-69
2023/12/03 11:32:24;;;;;;;8.80;5.05;;;22.90;52.80;;;;;;5035764;28;20491;-68
2023/12/03 11:34:57;;;;;;;7.10;4.40;;;22.80;52.70;;;;;;5052624;28;20036;-67
2023/12/03 11:37:26;;;;;;;7.28;3.72;;;22.90;52.80;;;;;;5044378;28;20089;-68
2023/12/03 11:40:25;;;;;;;6.38;3.65;;;22.90;52.70;;;;;;5033617;28;20039;-69
2023/12/03 11:42:51;;;;;;;2.63;1.70;;;22.90;52.40;;;;;;4951607;28;20082;-67
2023/12/03 11:45:25;;;;;;;18.13;3.60;;;23.10;51.30;;;;;;4966416;28;20042;-68
2023/12/03 11:48:06;;;;;;;9.52;3.83;;;23.10;48.30;;;;;;4937270;29;20377;-67
2023/12/03 11:50:40;;;;;;;4.70;2.10;;;23.20;46.60;;;;;;4955077;28;20402;-66
2023/12/03 11:53:08;;;;;;;8.07;5.57;;;23.10;44.70;;;;;;4958340;28;20043;-66
2023/12/03 11:55:57;;;;;;;6.60;4.57;;;23.10;40.80;;;;;;4972647;28;20553;-65
2023/12/03 11:58:25;;;;;;;7.95;4.53;;;23.10;38.70;;;;;;4972735;28;20460;-66
2023/12/03 12:00:51;;;;;;;9.07;4.55;;;23.00;38.20;;;;;;4970961;28;20035;-65
2023/12/03 12:03:18;;;;;;;7.60;5.05;;;23.10;38.50;;;;;;4959761;28;20039;-67
2023/12/03 12:05:46;;;;;;;5.55;4.38;;;23.20;39.20;;;;;;4937106;29;20061;-67
2023/12/03 12:08:23;;;;;;;5.80;4.18;;;23.30;40.60;;;;;;4967895;28;20052;-66
2023/12/03 12:10:50;;;;;;;7.57;5.00;;;23.30;40.50;;;;;;4937068;29;20044;-67
2023/12/03 12:13:18;;;;;;;7.15;5.35;;;23.60;41.60;;;;;;4953953;28;20102;-66
2023/12/03 12:15:45;;;;;;;6.80;5.35;;;23.60;40.40;;;;;;4972366;28;20065;-65
2023/12/03 12:18:14;;;;;;;8.68;5.40;;;23.60;42.60;;;;;;5013172;28;20063;-68
2023/12/03 12:20:42;;;;;;;6.72;6.03;;;23.70;41.60;;;;;;5050681;28;20048;-67
2023/12/03 12:23:11;;;;;;;6.28;4.18;;;23.80;42.50;;;;;;4992932;28;20154;-67
2023/12/03 12:25:37;;;;;;;8.32;4.63;;;23.90;41.50;;;;;;5007010;28;20093;-66
2023/12/03 12:28:04;;;;;;;7.22;4.40;;;24.00;42.90;;;;;;5005576;28;20569;-66
2023/12/03 12:30:50;;;;;;;6.50;3.97;;;24.10;40.10;;;;;;4990136;28;20047;-65
2023/12/03 12:33:19;;;;;;;6.15;4.22;;;24.10;40.70;;;;;;4990582;28;20042;-67
2023/12/03 12:35:53;;;;;;;8.35;5.07;;;24.30;40.30;;;;;;4991057;28;20050;-67
2023/12/03 12:38:19;;;;;;;6.95;4.78;;;24.40;37.20;;;;;;4954564;28;20042;-65